Time;durP1;ratioP1;P1;durP2;ratioP2;P2;SDS_P1;SDS_P2;PMS_P1;PMS_P2;Temp;Humidity;BMP_temperature;BMP_pressure;BME280_temperature;BME280_humidity;BME280_pressure;Samples;Min_cycle;Max_cycle;Signal;HPM_P1;HPM_P2
2022/04/05 00:00:06;;;;;;;11.55;10.07;;;;;;;6.82;100.00;99948.56;6253551;23;20492;-79
2022/04/05 00:02:33;;;;;;;11.95;10.40;;;;;;;6.82;100.00;99932.94;6252470;23;20031;-80
2022/04/05 00:05:02;;;;;;;12.18;10.50;;;;;;;6.82;100.00;99936.38;6253725;23;20181;-81
2022/04/05 00:13:56;;;;;;;12.80;11.38;;;;;;;6.85;100.00;99930.88;6157414;23;20076;-81
2022/04/05 00:29:45;;;;;;;15.00;11.75;;;;;;;7.00;100.00;99936.38;6117174;23;21409;-80
2022/04/05 00:32:12;;;;;;;14.65;11.88;;;;;;;6.99;100.00;99937.34;6220326;23;20028;-79
2022/04/05 00:34:40;;;;;;;17.17;12.93;;;;;;;7.04;100.00;99944.69;6220789;23;20083;-81
2022/04/05 00:37:06;;;;;;;15.15;12.50;;;;;;;7.07;100.00;99947.00;6220854;23;20036;-79
2022/04/05 00:39:33;;;;;;;15.55;12.90;;;;;;;7.05;100.00;99946.34;6216869;23;20353;-80
2022/04/05 00:42:00;;;;;;;16.90;12.77;;;;;;;7.07;100.00;99942.63;6191524;23;20025;-79
2022/04/05 00:44:26;;;;;;;14.75;11.98;;;;;;;7.05;100.00;99944.56;6193344;23;20048;-80
2022/04/05 00:46:55;;;;;;;15.25;12.57;;;;;;;7.07;100.00;99929.59;6191068;23;20071;-81
2022/04/05 00:49:28;;;;;;;15.88;12.55;;;;;;;7.07;100.00;99940.00;6190401;23;20076;-79
2022/04/05 00:51:57;;;;;;;14.90;12.18;;;;;;;7.11;100.00;99937.91;6190265;23;20024;-81
2022/04/05 00:54:25;;;;;;;15.73;11.90;;;;;;;7.14;100.00;99927.19;6189716;23;20021;-81
2022/04/05 00:56:54;;;;;;;15.20;13.02;;;;;;;7.14;100.00;99927.19;6189941;23;20041;-80
2022/04/05 00:59:22;;;;;;;15.60;12.48;;;;;;;7.15;100.00;99926.22;6189108;23;20065;-80
2022/04/05 01:01:50;;;;;;;16.30;12.90;;;;;;;7.16;100.00;99927.88;6188437;23;20370;-79
2022/04/05 01:04:18;;;;;;;15.38;12.85;;;;;;;7.19;100.00;99919.75;6188204;23;20032;-80
2022/04/05 01:06:46;;;;;;;17.13;14.05;;;;;;;7.21;100.00;99915.22;6187898;23;20177;-79
2022/04/05 01:09:13;;;;;;;16.92;13.35;;;;;;;7.24;100.00;99925.31;6187538;23;20072;-80
2022/04/05 01:11:39;;;;;;;16.42;13.68;;;;;;;7.27;100.00;99927.63;6188128;23;20048;-81
2022/04/05 01:14:07;;;;;;;17.98;13.52;;;;;;;7.29;100.00;99939.53;6188407;23;20461;-80
2022/04/05 01:16:35;;;;;;;17.85;13.98;;;;;;;7.31;100.00;99941.97;6192028;23;20092;-79
2022/04/05 01:19:01;;;;;;;16.58;13.68;;;;;;;7.33;100.00;99933.03;6194998;23;20071;-80
2022/04/05 01:21:30;;;;;;;17.25;14.13;;;;;;;7.34;100.00;99936.47;6200131;23;20025;-81
2022/04/05 01:24:09;;;;;;;18.50;14.98;;;;;;;7.36;100.00;99937.13;6200388;23;20028;-82
2022/04/05 01:26:40;;;;;;;18.63;14.82;;;;;;;7.43;100.00;99945.97;6202179;23;20118;-80
2022/04/05 01:29:07;;;;;;;19.63;15.38;;;;;;;7.56;100.00;99941.16;6200013;23;20025;-80
2022/04/05 01:31:37;;;;;;;20.20;15.93;;;;;;;7.60;100.00;99939.88;6200209;23;20051;-80
2022/04/05 01:34:04;;;;;;;18.50;14.93;;;;;;;7.74;100.00;99942.88;6204666;23;20020;-81
2022/04/05 01:36:30;;;;;;;18.95;14.50;;;;;;;7.74;100.00;99941.09;6195604;23;20017;-83
2022/04/05 01:38:57;;;;;;;19.45;15.23;;;;;;;7.84;100.00;99946.22;6190197;23;20068;-82
2022/04/05 01:41:25;;;;;;;20.15;15.95;;;;;;;7.82;100.00;99943.75;6189378;23;20091;-82
2022/04/05 01:43:52;;;;;;;19.55;15.63;;;;;;;7.82;100.00;99935.94;6191024;23;20096;-82
2022/04/05 01:46:19;;;;;;;19.73;15.90;;;;;;;7.83;100.00;99939.34;6190420;23;20052;-82
2022/04/05 01:48:45;;;;;;;18.85;15.27;;;;;;;7.87;100.00;99944.09;6190255;23;20079;-82
2022/04/05 01:51:14;;;;;;;22.35;15.55;;;;;;;7.95;100.00;99935.53;6190648;23;20391;-83
2022/04/05 01:53:43;;;;;;;20.25;15.45;;;;;;;8.00;100.00;99938.47;6197025;23;20055;-81
2022/04/05 01:56:10;;;;;;;18.92;15.55;;;;;;;8.02;100.00;99936.53;6196237;23;20060;-83
2022/04/05 01:58:38;;;;;;;20.20;14.90;;;;;;;8.09;100.00;99939.31;6193862;23;20404;-80
2022/04/05 02:01:05;;;;;;;21.08;16.42;;;;;;;8.10;100.00;99944.34;6198986;23;20047;-79
2022/04/05 02:03:32;;;;;;;21.85;16.05;;;;;;;8.07;100.00;99931.63;6197629;23;20033;-82
2022/04/05 02:05:58;;;;;;;23.52;16.63;;;;;;;8.06;100.00;99931.78;6198124;23;20040;-82
2022/04/05 02:08:25;;;;;;;23.27;16.05;;;;;;;8.06;100.00;99930.00;6190936;23;20048;-82
2022/04/05 02:10:52;;;;;;;24.33;17.23;;;;;;;8.06;100.00;99935.22;6191048;23;20096;-81
2022/04/05 02:13:18;;;;;;;20.35;15.35;;;;;;;8.08;100.00;99928.06;6191628;23;20059;-83
2022/04/05 02:15:46;;;;;;;20.90;15.75;;;;;;;8.11;100.00;99925.16;6195803;23;20025;-82
2022/04/05 02:18:13;;;;;;;21.80;17.00;;;;;;;8.10;100.00;99928.72;6191333;23;20060;-83
2022/04/05 02:20:40;;;;;;;20.98;16.63;;;;;;;8.10;100.00;99927.91;6190786;23;20087;-83
2022/04/05 02:23:06;;;;;;;21.38;16.40;;;;;;;8.11;100.00;99913.91;6192205;23;20071;-83
2022/04/05 02:25:33;;;;;;;20.75;15.40;;;;;;;8.18;100.00;99923.53;6191096;23;20100;-82
2022/04/05 02:27:59;;;;;;;23.38;16.35;;;;;;;8.21;100.00;99931.06;6190966;23;20114;-84
2022/04/05 02:30:26;;;;;;;22.00;16.42;;;;;;;8.21;100.00;99925.03;6191583;23;20089;-83
2022/04/05 02:32:54;;;;;;;22.13;17.10;;;;;;;8.21;100.00;99936.25;6191229;23;20027;-82
2022/04/05 02:35:21;;;;;;;26.85;18.52;;;;;;;8.19;100.00;99922.56;6191531;23;20032;-84
2022/04/05 02:37:47;;;;;;;26.20;19.05;;;;;;;8.23;100.00;99936.94;6191571;23;20072;-83
2022/04/05 02:40:14;;;;;;;23.40;16.83;;;;;;;8.23;100.00;99929.09;6191195;23;20020;-84
2022/04/05 02:42:44;;;;;;;24.55;18.08;;;;;;;8.24;100.00;99929.91;6191836;23;20109;-84
2022/04/05 02:45:11;;;;;;;26.40;18.85;;;;;;;8.24;100.00;99933.34;6191081;23;20040;-83
2022/04/05 02:47:42;;;;;;;25.98;18.35;;;;;;;8.28;100.00;99929.44;6190893;23;20035;-83
2022/04/05 02:50:17;;;;;;;27.35;19.13;;;;;;;8.22;100.00;99914.44;6190514;23;20054;-83
2022/04/05 02:52:55;;;;;;;25.92;18.90;;;;;;;8.30;100.00;99930.09;6191313;23;20021;-84
2022/04/05 02:55:22;;;;;;;23.88;17.90;;;;;;;8.27;100.00;99922.59;6190268;23;20032;-82
2022/04/05 02:57:52;;;;;;;22.23;16.77;;;;;;;8.34;100.00;99935.03;6192047;23;20409;-80
2022/04/05 03:00:21;;;;;;;25.00;18.02;;;;;;;8.26;100.00;99918.38;6191118;23;20401;-82
2022/04/05 03:02:47;;;;;;;27.10;20.05;;;;;;;8.20;100.00;99905.97;6190419;23;20025;-82
2022/04/05 03:05:18;;;;;;;28.08;19.63;;;;;;;8.32;100.00;99925.59;6190808;23;20025;-80
2022/04/05 03:07:44;;;;;;;26.52;19.30;;;;;;;8.36;100.00;99917.44;6190908;23;20411;-80
2022/04/05 03:10:12;;;;;;;27.35;18.45;;;;;;;8.39;100.00;99924.97;6189509;23;20067;-82
2022/04/05 03:12:39;;;;;;;25.25;18.98;;;;;;;8.36;100.00;99926.09;6190018;23;20046;-83
2022/04/05 03:15:08;;;;;;;29.27;19.33;;;;;;;8.36;100.00;99928.69;6191979;23;20036;-83
2022/04/05 03:17:35;;;;;;;28.63;19.13;;;;;;;8.40;100.00;99931.81;6192771;23;20041;-82
2022/04/05 03:20:03;;;;;;;29.35;20.13;;;;;;;8.36;100.00;99927.88;6192717;23;20021;-84
2022/04/05 03:22:31;;;;;;;26.98;18.48;;;;;;;8.34;100.00;99929.81;6192774;23;20013;-81
2022/04/05 03:25:00;;;;;;;27.55;19.23;;;;;;;8.39;100.00;99940.59;6192561;23;20021;-82
2022/04/05 03:27:27;;;;;;;27.73;19.05;;;;;;;8.41;100.00;99925.63;6194068;23;20021;-83
2022/04/05 03:29:56;;;;;;;27.13;17.38;;;;;;;8.48;100.00;99939.66;6193546;23;20077;-83
2022/04/05 03:32:22;;;;;;;26.92;18.38;;;;;;;8.46;100.00;99923.34;6193721;23;20052;-82
2022/04/05 03:34:50;;;;;;;25.70;17.67;;;;;;;8.48;100.00;99926.63;6193746;23;20036;-83
2022/04/05 03:37:16;;;;;;;24.05;16.80;;;;;;;8.52;100.00;99930.50;6193501;23;20541;-83
2022/04/05 03:39:48;;;;;;;27.67;19.40;;;;;;;8.48;100.00;99935.25;6193019;23;20481;-84
2022/04/05 03:42:15;;;;;;;30.25;20.63;;;;;;;8.47;100.00;99932.81;6194268;23;20177;-82
2022/04/05 03:44:42;;;;;;;29.67;19.83;;;;;;;8.48;100.00;99931.81;6193402;23;20025;-82
2022/04/05 03:47:09;;;;;;;27.05;18.45;;;;;;;8.49;100.00;99928.25;6193072;23;20017;-83
2022/04/05 03:49:35;;;;;;;26.52;18.80;;;;;;;8.49;100.00;99921.25;6191386;23;20063;-82
2022/04/05 03:52:02;;;;;;;29.85;20.35;;;;;;;8.53;100.00;99924.31;6192673;23;20052;-82
2022/04/05 03:54:29;;;;;;;27.88;19.67;;;;;;;8.55;100.00;99932.78;6192978;23;20381;-82
2022/04/05 03:56:57;;;;;;;32.50;20.75;;;;;;;8.60;100.00;99933.13;6192271;23;20017;-83
2022/04/05 03:59:23;;;;;;;30.67;19.13;;;;;;;8.59;100.00;99926.28;6191849;23;20058;-82
2022/04/05 04:01:50;;;;;;;29.10;20.27;;;;;;;8.60;100.00;99935.75;6193452;23;20021;-84
2022/04/05 04:04:17;;;;;;;33.83;22.40;;;;;;;8.58;100.00;99930.69;6193492;23;20614;-83
2022/04/05 04:06:44;;;;;;;31.63;22.42;;;;;;;8.60;100.00;99933.13;6195369;23;20028;-82
2022/04/05 04:09:11;;;;;;;32.28;23.20;;;;;;;8.61;100.00;99930.38;6193141;23;20330;-81
2022/04/05 04:11:40;;;;;;;36.92;25.48;;;;;;;8.62;100.00;99934.59;6190886;23;20033;-82
2022/04/05 04:14:08;;;;;;;37.78;25.17;;;;;;;8.58;100.00;99919.44;6191773;23;20028;-82
2022/04/05 04:16:34;;;;;;;40.13;25.92;;;;;;;8.64;100.00;99937.88;6191216;23;20069;-81
2022/04/05 04:19:01;;;;;;;41.83;26.35;;;;;;;8.69;100.00;99933.97;6192834;23;20025;-82
2022/04/05 04:21:28;;;;;;;41.00;26.02;;;;;;;8.72;100.00;99937.06;6192882;23;20021;-82
2022/04/05 04:23:55;;;;;;;40.33;26.17;;;;;;;8.73;100.00;99930.06;6192629;23;20021;-83
2022/04/05 04:26:22;;;;;;;43.78;26.65;;;;;;;8.76;100.00;99935.78;6191449;23;20104;-80
2022/04/05 04:28:53;;;;;;;44.80;29.67;;;;;;;8.79;100.00;99940.69;6193649;23;20064;-82
2022/04/05 04:31:21;;;;;;;42.47;26.23;;;;;;;8.81;100.00;99937.91;6193427;23;20059;-82
2022/04/05 04:33:47;;;;;;;47.92;28.92;;;;;;;8.81;100.00;99937.91;6203003;23;20097;-84
2022/04/05 04:36:14;;;;;;;47.55;30.27;;;;;;;8.83;100.00;99946.38;6213133;23;20009;-82
2022/04/05 04:38:43;;;;;;;46.95;28.63;;;;;;;8.84;100.00;99946.22;6212789;23;20025;-83
2022/04/05 04:41:09;;;;;;;41.65;26.67;;;;;;;8.82;100.00;99945.56;6209342;23;20025;-82
2022/04/05 04:43:36;;;;;;;49.72;29.02;;;;;;;8.85;100.00;99950.47;6195933;23;20054;-79
2022/04/05 04:46:04;;;;;;;49.92;32.38;;;;;;;8.87;100.00;99942.47;6198235;23;20025;-82
2022/04/05 04:48:32;;;;;;;50.92;31.10;;;;;;;8.86;100.00;99943.47;6195015;23;20092;-81
2022/04/05 04:50:59;;;;;;;51.30;32.35;;;;;;;8.94;100.00;99948.69;6192699;23;20501;-81
2022/04/05 04:53:25;;;;;;;50.88;30.60;;;;;;;8.93;100.00;99955.69;6194192;23;20052;-82
2022/04/05 04:55:52;;;;;;;49.80;30.63;;;;;;;9.02;100.00;99960.91;6191618;23;20052;-82
2022/04/05 04:58:22;;;;;;;44.95;27.77;;;;;;;9.04;100.00;99951.94;6190919;23;20403;-81
2022/04/05 05:00:49;;;;;;;53.33;29.25;;;;;;;9.05;100.00;99955.34;6191779;23;20036;-80
2022/04/05 05:03:18;;;;;;;51.22;30.10;;;;;;;8.99;100.00;99957.63;6194318;23;20056;-82
2022/04/05 05:05:47;;;;;;;46.47;28.20;;;;;;;9.03;100.00;99952.91;6199799;23;20040;-83
2022/04/05 05:08:14;;;;;;;45.00;27.52;;;;;;;9.03;100.00;99957.31;6194537;23;20021;-80
2022/04/05 05:10:43;;;;;;;43.17;26.70;;;;;;;9.02;100.00;99956.50;6195885;23;20025;-80
2022/04/05 05:13:09;;;;;;;43.50;27.70;;;;;;;9.05;100.00;99960.56;6198722;23;20021;-80
2022/04/05 05:15:38;;;;;;;50.63;30.45;;;;;;;9.04;100.00;99969.38;6195896;23;20498;-80
2022/04/05 05:18:16;;;;;;;48.70;29.58;;;;;;;9.04;100.00;99961.56;6192517;23;20077;-81
2022/04/05 05:20:57;;;;;;;52.72;30.15;;;;;;;9.02;100.00;99959.09;6193730;23;20031;-82
2022/04/05 05:24:03;;;;;;;50.15;30.98;;;;;;;9.01;100.00;99962.69;6197473;23;20021;-83
2022/04/05 05:26:33;;;;;;;53.67;31.42;;;;;;;8.99;100.00;99962.84;6193153;23;20024;-80
2022/04/05 05:29:01;;;;;;;50.30;28.48;;;;;;;8.91;100.00;99949.00;6189319;23;20556;-82
2022/04/05 05:31:28;;;;;;;45.72;28.35;;;;;;;8.95;100.00;99958.97;6191870;23;20121;-81
2022/04/05 05:33:54;;;;;;;50.47;30.45;;;;;;;8.97;100.00;99964.84;6192467;23;20035;-83
2022/04/05 05:36:23;;;;;;;53.80;32.40;;;;;;;8.91;100.00;99957.66;6191828;23;20025;-84
2022/04/05 05:38:50;;;;;;;52.83;32.42;;;;;;;8.89;100.00;99958.78;6190366;23;20021;-83
2022/04/05 05:41:16;;;;;;;52.38;30.30;;;;;;;9.03;100.00;99973.78;6191564;23;20056;-82
2022/04/05 05:43:45;;;;;;;46.17;28.98;;;;;;;9.04;100.00;99969.38;6191273;23;20098;-82
2022/04/05 05:46:15;;;;;;;48.58;29.30;;;;;;;8.98;100.00;99982.09;6184595;23;20393;-83
2022/04/05 05:48:42;;;;;;;49.15;30.08;;;;;;;9.05;100.00;99978.84;6195290;23;20027;-82
2022/04/05 05:51:09;;;;;;;47.83;28.17;;;;;;;9.09;100.00;99973.13;6190769;23;20148;-82
2022/04/05 05:53:40;;;;;;;46.72;27.83;;;;;;;9.07;100.00;99976.88;6190186;23;20059;-82
2022/04/05 05:56:08;;;;;;;45.38;30.02;;;;;;;9.08;100.00;99973.31;6188820;23;20112;-84
2022/04/05 05:58:34;;;;;;;47.05;28.42;;;;;;;9.08;100.00;99986.34;6192703;23;20053;-84
2022/04/05 06:01:01;;;;;;;46.35;28.48;;;;;;;9.09;100.00;99980.16;6190817;23;20362;-80
2022/04/05 06:03:28;;;;;;;40.90;26.58;;;;;;;9.09;100.00;99982.75;6189981;23;20051;-82
2022/04/05 06:05:55;;;;;;;43.03;26.70;;;;;;;9.09;100.00;99980.97;6190241;23;20028;-83
2022/04/05 06:08:22;;;;;;;42.72;27.88;;;;;;;9.08;100.00;99975.91;6190071;23;20040;-81
2022/04/05 06:10:50;;;;;;;42.00;26.60;;;;;;;9.08;100.00;99986.34;6190249;23;20061;-80
2022/04/05 06:13:16;;;;;;;42.83;24.83;;;;;;;9.13;100.00;99978.84;6189084;23;20047;-80
2022/04/05 06:15:43;;;;;;;44.42;26.73;;;;;;;9.13;100.00;99992.72;6188794;23;20056;-82
2022/04/05 06:18:10;;;;;;;41.17;25.50;;;;;;;9.16;100.00;99983.75;6188323;23;20044;-80
2022/04/05 06:20:36;;;;;;;39.17;26.15;;;;;;;9.13;100.00;99989.28;6188693;23;20052;-79
2022/04/05 06:23:05;;;;;;;40.17;26.00;;;;;;;9.12;100.00;99996.31;6189802;23;20488;-80
2022/04/05 06:25:34;;;;;;;39.80;25.13;;;;;;;9.15;100.00;99998.59;6189302;23;20021;-78
2022/04/05 06:28:04;;;;;;;38.40;23.73;;;;;;;9.15;100.00;100001.22;6188829;23;20028;-80
2022/04/05 06:30:33;;;;;;;35.17;23.58;;;;;;;9.13;100.00;100010.19;6189569;23;20025;-81
2022/04/05 06:33:08;;;;;;;34.15;22.48;;;;;;;9.18;100.00;100015.72;6188566;23;20112;-80
2022/04/05 06:35:35;;;;;;;38.10;23.83;;;;;;;9.13;100.00;100015.41;6188499;23;20144;-80
2022/04/05 06:38:01;;;;;;;35.15;22.70;;;;;;;9.09;100.00;100014.91;6189560;23;20326;-80
2022/04/05 06:40:28;;;;;;;35.40;22.55;;;;;;;9.07;100.00;100021.25;6191597;23;20029;-81
2022/04/05 06:42:55;;;;;;;35.50;22.27;;;;;;;9.15;100.00;100018.66;6191847;23;20163;-81
2022/04/05 06:45:24;;;;;;;33.72;22.55;;;;;;;9.14;100.00;100017.84;6192179;23;20052;-81
2022/04/05 06:47:51;;;;;;;36.08;23.10;;;;;;;9.15;100.00;100016.88;6192100;23;20104;-79
2022/04/05 06:50:20;;;;;;;36.20;23.42;;;;;;;9.18;100.00;100020.94;6192213;23;20029;-80
2022/04/05 06:52:47;;;;;;;36.90;23.20;;;;;;;9.17;100.00;100017.53;6191215;23;20025;-80
2022/04/05 06:55:14;;;;;;;34.35;22.50;;;;;;;9.22;100.00;100024.88;6192713;23;20048;-81
2022/04/05 06:57:41;;;;;;;33.72;22.30;;;;;;;9.20;100.00;100026.81;6188815;23;20028;-80
2022/04/05 07:00:10;;;;;;;34.25;21.55;;;;;;;9.25;100.00;100019.34;6189013;23;20021;-80
2022/04/05 07:02:39;;;;;;;38.17;22.23;;;;;;;9.20;100.00;100024.22;6192059;23;20055;-81
2022/04/05 07:05:07;;;;;;;34.08;21.58;;;;;;;9.22;100.00;100030.09;6193416;23;20041;-81
2022/04/05 07:07:34;;;;;;;34.65;20.95;;;;;;;9.27;100.00;100028.63;6193393;23;20021;-82
2022/04/05 07:10:00;;;;;;;30.58;19.17;;;;;;;9.31;100.00;100023.91;6193140;23;20025;-82
2022/04/05 07:12:27;;;;;;;32.25;20.33;;;;;;;9.33;100.00;100032.41;6193053;23;20056;-82
2022/04/05 07:14:53;;;;;;;31.27;20.08;;;;;;;9.31;100.00;100029.13;6193627;23;20397;-82
2022/04/05 07:17:20;;;;;;;32.75;20.48;;;;;;;9.37;100.00;100025.06;6193874;23;20044;-82
2022/04/05 07:19:48;;;;;;;32.13;21.10;;;;;;;9.35;100.00;100027.81;6194057;23;20048;-82
2022/04/05 07:22:15;;;;;;;32.75;20.48;;;;;;;9.42;100.00;100025.38;6195078;23;20028;-82
2022/04/05 07:24:42;;;;;;;30.27;19.48;;;;;;;9.42;100.00;100023.59;6194337;23;20031;-81
2022/04/05 07:27:08;;;;;;;31.38;20.50;;;;;;;9.46;100.00;100019.66;6195178;23;20020;-82
2022/04/05 07:29:35;;;;;;;30.23;19.92;;;;;;;9.46;100.00;100026.66;6194209;23;20021;-82
2022/04/05 07:32:01;;;;;;;29.70;19.83;;;;;;;9.49;100.00;100021.13;6194549;23;20056;-82
2022/04/05 07:34:28;;;;;;;30.40;19.38;;;;;;;9.50;100.00;100028.78;6194174;23;20025;-82
2022/04/05 07:36:56;;;;;;;29.60;18.67;;;;;;;9.46;100.00;100016.22;6195568;23;20025;-82
2022/04/05 07:39:23;;;;;;;26.52;17.67;;;;;;;9.43;100.00;100022.63;6194651;23;20045;-81
2022/04/05 07:41:50;;;;;;;30.55;19.65;;;;;;;9.48;100.00;100030.75;6194486;23;20025;-82
2022/04/05 07:44:16;;;;;;;32.75;19.13;;;;;;;9.53;100.00;100023.25;6194244;23;20079;-81
2022/04/05 07:46:43;;;;;;;26.50;18.00;;;;;;;9.50;100.00;100041.03;6193733;23;20037;-82
2022/04/05 07:49:10;;;;;;;28.00;16.00;;;;;;;9.53;100.00;100033.69;6192079;23;20040;-81
2022/04/05 07:51:37;;;;;;;25.48;15.13;;;;;;;9.55;100.00;100036.94;6192813;23;20524;-82
2022/04/05 07:54:06;;;;;;;18.55;12.40;;;;;;;9.59;100.00;100029.59;6192315;23;20060;-82
2022/04/05 07:56:33;;;;;;;18.98;13.57;;;;;;;9.62;100.00;100037.13;6192349;23;20025;-82
2022/04/05 07:59:01;;;;;;;20.63;13.75;;;;;;;9.64;100.00;100032.53;6192157;23;20049;-82
2022/04/05 08:01:29;;;;;;;18.83;13.68;;;;;;;9.70;100.00;100033.69;6193967;23;20079;-82
2022/04/05 08:03:56;;;;;;;18.65;13.07;;;;;;;9.76;100.00;100026.00;6194567;23;20025;-81
2022/04/05 08:06:23;;;;;;;18.27;13.05;;;;;;;9.87;100.00;100032.69;6193510;23;20041;-82
2022/04/05 08:08:50;;;;;;;21.02;15.23;;;;;;;10.00;100.00;100025.13;6194040;23;20021;-80
2022/04/05 08:11:18;;;;;;;19.83;14.90;;;;;;;10.07;100.00;100026.09;6196735;23;20102;-81
2022/04/05 08:13:45;;;;;;;23.05;17.20;;;;;;;10.16;100.00;100030.31;6199983;23;20025;-82
2022/04/05 08:16:11;;;;;;;22.08;17.63;;;;;;;10.25;100.00;100028.53;6194995;23;20056;-83
2022/04/05 08:18:38;;;;;;;23.92;18.15;;;;;;;10.32;100.00;100033.91;6203746;23;20009;-80
2022/04/05 08:21:05;;;;;;;24.08;19.23;;;;;;;10.35;100.00;100033.59;6203537;23;20064;-83
2022/04/05 08:23:31;;;;;;;23.65;19.10;;;;;;;10.35;100.00;100044.03;6193136;23;20021;-81
2022/04/05 08:25:58;;;;;;;25.23;19.35;;;;;;;10.40;100.00;100045.13;6193284;23;20040;-82
2022/04/05 08:28:27;;;;;;;23.88;18.85;;;;;;;10.45;100.00;100040.22;6196392;23;20029;-82
2022/04/05 08:30:53;;;;;;;25.85;19.77;;;;;;;10.51;100.00;100038.72;6202405;23;20109;-83
2022/04/05 08:33:20;;;;;;;25.45;20.15;;;;;;;10.58;100.00;100047.53;6202425;23;20445;-80
2022/04/05 08:35:47;;;;;;;26.17;19.85;;;;;;;10.75;99.71;100041.25;6203212;23;20037;-80
2022/04/05 08:38:13;;;;;;;27.42;19.05;;;;;;;10.77;98.86;100039.28;6205388;23;20097;-81
2022/04/05 08:40:40;;;;;;;23.95;19.42;;;;;;;10.83;99.11;100045.63;6207571;23;20024;-82
2022/04/05 08:43:07;;;;;;;24.17;18.55;;;;;;;10.73;98.21;100048.44;6208713;23;20025;-82
2022/04/05 08:45:36;;;;;;;24.73;18.80;;;;;;;10.77;98.67;100052.34;6208140;23;20025;-82
2022/04/05 08:48:09;;;;;;;24.25;19.80;;;;;;;10.73;98.18;100053.69;6208161;23;20028;-83
2022/04/05 08:50:35;;;;;;;26.80;20.65;;;;;;;10.89;98.47;100056.19;6209488;23;20018;-82
2022/04/05 08:53:03;;;;;;;25.60;20.05;;;;;;;10.95;97.93;100058.13;6208385;23;20024;-81
2022/04/05 08:55:30;;;;;;;26.08;19.30;;;;;;;11.03;99.40;100052.03;6206421;23;20178;-80
2022/04/05 08:57:57;;;;;;;25.00;19.45;;;;;;;11.10;97.23;100054.78;6208644;23;20036;-80
2022/04/05 09:00:25;;;;;;;27.08;21.55;;;;;;;11.00;97.44;100054.19;6209157;23;20024;-81
2022/04/05 09:02:55;;;;;;;26.08;21.48;;;;;;;10.94;97.53;100061.75;6208488;23;20032;-82
2022/04/05 09:05:30;;;;;;;27.20;22.88;;;;;;;10.92;97.66;100058.47;6207952;23;20013;-83
2022/04/05 09:08:29;;;;;;;29.38;22.92;;;;;;;10.81;99.51;100063.31;6206139;23;20025;-82
2022/04/05 09:11:12;;;;;;;30.63;24.10;;;;;;;10.81;100.00;100063.31;6115271;23;20022;-82
2022/04/05 09:13:39;;;;;;;33.60;24.00;;;;;;;10.58;100.00;100069.28;6114885;23;20082;-81
2022/04/05 09:16:08;;;;;;;32.30;24.48;;;;;;;10.50;100.00;100068.50;6165045;23;20032;-82
2022/04/05 09:18:41;;;;;;;36.40;26.52;;;;;;;10.43;100.00;100067.53;6202621;23;20036;-80
2022/04/05 09:21:08;;;;;;;;;;;;;;;10.41;100.00;100069.50;6197662;23;20048;-84
2022/04/05 09:23:38;;;;;;;33.50;25.00;;;;;;;10.36;100.00;100066.59;6196982;23;19943;-84
2022/04/05 09:26:06;;;;;;;36.28;26.38;;;;;;;10.31;100.00;100067.09;6201973;23;20452;-83
2022/04/05 09:28:35;;;;;;;39.15;26.67;;;;;;;10.27;100.00;100064.00;6206001;23;20085;-82
2022/04/05 09:31:06;;;;;;;37.75;27.60;;;;;;;10.27;100.00;100064.00;6207736;23;20024;-82
2022/04/05 09:33:35;;;;;;;39.63;27.95;;;;;;;10.30;100.00;100068.91;6206968;23;20029;-80
2022/04/05 09:36:07;;;;;;;36.33;26.42;;;;;;;10.25;100.00;100065.16;6206421;23;20021;-83
2022/04/05 09:38:34;;;;;;;33.92;24.90;;;;;;;10.37;100.00;100068.22;6196465;23;20016;-84
2022/04/05 09:41:10;;;;;;;34.75;24.77;;;;;;;10.36;100.00;100072.63;6193796;23;20029;-82
2022/04/05 09:43:37;;;;;;;31.52;23.55;;;;;;;10.46;100.00;100077.66;6194321;23;20047;-81
2022/04/05 09:46:12;;;;;;;28.58;22.88;;;;;;;10.42;100.00;100081.59;6194165;23;20076;-83
2022/04/05 09:48:42;;;;;;;34.45;24.88;;;;;;;10.48;100.00;100075.69;6195864;23;20025;-78
2022/04/05 09:51:24;;;;;;;26.85;20.80;;;;;;;10.50;100.00;100084.19;6207427;23;20049;-83
2022/04/05 09:54:07;;;;;;;27.23;21.17;;;;;;;10.58;99.50;100074.50;6208029;23;20013;-80
2022/04/05 09:59:26;;;;;;;23.42;19.73;;;;;;;10.99;98.28;100069.06;6192322;23;20040;-82
2022/04/05 10:02:20;;;;;;;21.90;18.73;;;;;;;11.22;96.04;100069.13;6192827;23;20025;-83
2022/04/05 10:05:02;;;;;;;20.17;17.50;;;;;;;11.43;95.80;100073.69;6192797;23;20029;-82
2022/04/05 10:07:48;;;;;;;23.27;18.77;;;;;;;11.71;95.08;100079.22;6202981;23;20059;-81
2022/04/05 10:10:24;;;;;;;21.27;17.33;;;;;;;11.62;93.74;100089.78;6202905;23;20021;-81
2022/04/05 10:16:30;;;;;;;17.92;15.85;;;;;;;11.75;92.79;100080.50;6197648;23;20044;-82
2022/04/05 10:19:28;;;;;;;17.42;14.77;;;;;;;11.94;91.66;100093.13;6202976;23;20453;-81
2022/04/05 10:41:42;;;;;;;19.25;15.35;;;;;;;11.91;91.62;100089.06;5963920;23;20034;-84
2022/04/05 11:01:34;;;;;;;21.70;16.25;;;;;;;11.72;90.56;100065.13;6069883;23;20030;-81
2022/04/05 11:04:37;;;;;;;18.33;14.32;;;;;;;11.88;90.30;100086.78;6098848;23;20022;-80
2022/04/05 11:08:01;;;;;;;16.50;14.15;;;;;;;12.10;89.88;100066.75;6103239;23;20053;-82
2022/04/05 11:11:04;;;;;;;16.20;14.50;;;;;;;12.13;89.05;100071.66;6193348;23;20021;-83
2022/04/05 11:14:02;;;;;;;16.90;14.65;;;;;;;11.87;89.83;100056.31;6128174;23;20022;-82
2022/04/05 11:16:45;;;;;;;18.50;13.82;;;;;;;11.85;91.03;100068.78;6190168;23;20477;-83
2022/04/05 11:19:49;;;;;;;16.83;14.23;;;;;;;11.76;92.64;100079.53;6190552;23;20052;-84
2022/04/05 11:22:45;;;;;;;17.20;14.30;;;;;;;11.81;92.16;100090.31;6183287;23;20111;-83
2022/04/05 11:32:27;;;;;;;16.88;14.73;;;;;;;11.57;94.03;100065.91;5983599;24;20596;-84
2022/04/05 11:35:39;;;;;;;17.17;14.95;;;;;;;11.68;93.26;100074.34;6065976;23;20041;-83
2022/04/05 11:39:05;;;;;;;20.75;14.70;;;;;;;11.78;92.34;100075.75;6040099;23;20023;-83
2022/04/05 11:48:51;;;;;;;18.02;13.95;;;;;;;11.67;93.78;100070.09;6156245;23;20029;-84
2022/04/05 11:58:22;;;;;;;15.38;13.38;;;;;;;11.56;94.34;100087.84;6103939;23;20061;-84
2022/04/05 12:01:40;;;;;;;;;;;;;;;;;;;;;
2022/04/05 12:04:48;;;;;;;15.02;12.82;;;;;;;11.35;96.05;100081.63;6161291;23;20017;-83
2022/04/05 12:14:09;;;;;;;20.52;16.95;;;;;;;11.39;97.21;100065.38;6189646;23;20024;-82
2022/04/05 12:26:49;;;;;;;19.15;17.00;;;;;;;12.10;93.83;100079.88;6180297;23;20025;-83
2022/04/05 12:32:56;;;;;;;18.60;15.57;;;;;;;12.32;93.08;100057.16;6197487;23;20359;-83
2022/04/05 12:35:23;;;;;;;19.25;15.90;;;;;;;12.44;92.50;100078.53;6221311;23;20024;-82
2022/04/05 12:37:50;;;;;;;18.23;15.02;;;;;;;12.21;93.21;100079.44;6220546;23;20129;-80
2022/04/05 12:40:24;;;;;;;18.10;14.68;;;;;;;12.02;92.83;100072.09;6217722;23;20397;-81
2022/04/05 12:42:54;;;;;;;15.50;13.27;;;;;;;12.06;93.13;100062.06;6193907;23;20032;-82
2022/04/05 12:45:35;;;;;;;16.48;14.15;;;;;;;12.02;93.28;100058.97;6192419;23;20021;-83
2022/04/05 12:48:15;;;;;;;13.40;11.80;;;;;;;12.01;92.32;100059.97;6190403;23;20084;-82
2022/04/05 12:50:43;;;;;;;13.95;11.13;;;;;;;12.03;92.23;100063.22;6192200;23;20017;-81
2022/04/05 12:53:10;;;;;;;13.80;11.05;;;;;;;12.04;91.46;100059.59;6192125;23;20032;-84
2022/04/05 12:55:37;;;;;;;11.15;9.65;;;;;;;12.00;91.00;100058.34;6190575;23;20464;-84
2022/04/05 12:58:42;;;;;;;14.25;10.75;;;;;;;12.20;91.15;100071.75;6190359;23;20174;-82
2022/04/05 13:01:20;;;;;;;11.48;10.25;;;;;;;12.13;90.57;100073.47;6190243;23;20037;-81
2022/04/05 13:04:28;;;;;;;11.77;10.43;;;;;;;12.11;90.50;100072.81;6193260;23;20115;-84
2022/04/05 13:07:09;;;;;;;10.63;9.27;;;;;;;12.17;89.97;100056.38;6194539;23;20327;-82
2022/04/05 13:09:39;;;;;;;10.63;9.52;;;;;;;11.95;88.87;100056.25;6192514;23;20552;-83
2022/04/05 13:12:56;;;;;;;13.82;11.18;;;;;;;12.14;90.13;100054.94;6193111;23;20590;-82
2022/04/05 13:15:41;;;;;;;12.88;11.25;;;;;;;12.32;90.46;100066.84;6202175;23;20025;-82